Time;durP1;ratioP1;P1;durP2;ratioP2;P2;SDS_P1;SDS_P2;PMS_P1;PMS_P2;Temp;Humidity;BMP_temperature;BMP_pressure;BME280_temperature;BME280_humidity;BME280_pressure;Samples;Min_cycle;Max_cycle;Signal;HPM_P1;HPM_P2
2024/04/06 00:01:51;;;;;;;0.30;0.28;;;;;;;;;;4996013;28;20056;-81
2024/04/06 00:04:17;;;;;;;0.20;0.10;;;;;;;;;;4997558;28;20034;-81
2024/04/06 00:06:43;;;;;;;3.53;1.33;;;;;;;;;;5001609;28;20044;-81
2024/04/06 00:09:11;;;;;;;0.20;0.10;;;;;;;;;;5001261;28;20097;-82
2024/04/06 00:11:37;;;;;;;0.20;0.10;;;;;;;;;;5000359;28;20037;-81
2024/04/06 00:14:03;;;;;;;0.20;0.00;;;;;;;;;;5012270;28;20176;-81
2024/04/06 00:16:29;;;;;;;0.20;0.00;;;;;;;;;;5014118;28;20105;-81
2024/04/06 00:18:55;;;;;;;0.20;0.10;;;;;;;;;;5044532;28;20093;-81
2024/04/06 00:21:21;;;;;;;0.20;0.00;;;;;;;;;;5009296;28;20068;-81
2024/04/06 00:23:47;;;;;;;0.40;0.20;;;;;;;;;;4992556;28;20030;-82
2024/04/06 00:26:13;;;;;;;0.20;0.10;;;;;;;;;;5044972;28;20033;-82
2024/04/06 00:28:39;;;;;;;0.20;0.10;;;;;;;;;;4997240;28;20052;-82
2024/04/06 00:31:06;;;;;;;0.20;0.10;;;;;;;;;;4996709;28;20037;-81
2024/04/06 00:33:32;;;;;;;0.20;0.10;;;;;;;;;;5006876;28;20132;-81
2024/04/06 00:35:58;;;;;;;0.20;0.00;;;;;;;;;;5010932;28;20046;-82
2024/04/06 00:38:24;;;;;;;0.20;0.00;;;;;;;;;;5009059;28;20030;-81
2024/04/06 00:40:50;;;;;;;0.20;0.00;;;;;;;;;;4994983;28;20061;-83
2024/04/06 00:43:16;;;;;;;0.52;0.10;;;;;;;;;;5080606;22;20082;-81
2024/04/06 00:45:43;;;;;;;0.20;0.10;;;;;;;;;;5044811;28;20046;-81
2024/04/06 00:48:10;;;;;;;0.20;0.10;;;;;;;;;;5045724;28;20038;-81
2024/04/06 00:50:36;;;;;;;0.20;0.10;;;;;;;;;;5062034;28;20044;-81
2024/04/06 00:53:03;;;;;;;0.20;0.03;;;;;;;;;;5058596;28;20040;-81
2024/04/06 00:55:29;;;;;;;0.20;0.10;;;;;;;;;;5059708;28;20651;-81
2024/04/06 00:57:55;;;;;;;0.20;0.00;;;;;;;;;;5049387;28;20040;-81
2024/04/06 01:00:21;;;;;;;0.20;0.10;;;;;;;;;;5060383;28;20086;-81
2024/04/06 01:02:47;;;;;;;0.20;0.10;;;;;;;;;;5040913;28;20047;-81
2024/04/06 01:05:13;;;;;;;0.20;0.00;;;;;;;;;;5042507;28;20033;-81
2024/04/06 01:07:44;;;;;;;0.20;0.10;;;;;;;;;;5046953;28;20098;-81
2024/04/06 01:10:10;;;;;;;0.20;0.10;;;;;;;;;;5047845;28;20040;-82
2024/04/06 01:12:36;;;;;;;0.20;0.10;;;;;;;;;;5066620;28;20047;-82
2024/04/06 01:15:02;;;;;;;0.20;0.10;;;;;;;;;;5053713;28;20036;-82
2024/04/06 01:17:28;;;;;;;0.20;0.10;;;;;;;;;;5054030;28;20548;-81
2024/04/06 01:19:54;;;;;;;0.20;0.10;;;;;;;;;;5071485;28;20044;-82
2024/04/06 01:22:20;;;;;;;0.40;0.15;;;;;;;;;;5064634;28;20039;-82
2024/04/06 01:24:46;;;;;;;0.28;0.20;;;;;;;;;;5071287;28;20225;-81
2024/04/06 01:27:12;;;;;;;0.20;0.00;;;;;;;;;;5067537;28;20505;-82
2024/04/06 01:29:38;;;;;;;0.20;0.00;;;;;;;;;;5051616;28;20047;-82
2024/04/06 01:32:04;;;;;;;0.20;0.10;;;;;;;;;;5054649;28;20067;-81
2024/04/06 01:34:30;;;;;;;0.20;0.10;;;;;;;;;;5060090;28;20039;-82
2024/04/06 01:36:56;;;;;;;0.20;0.10;;;;;;;;;;5071795;28;20116;-81
2024/04/06 01:39:22;;;;;;;0.20;0.10;;;;;;;;;;5056180;28;20610;-82
2024/04/06 01:41:49;;;;;;;0.20;0.00;;;;;;;;;;5061016;28;20680;-81
2024/04/06 01:44:15;;;;;;;0.20;0.00;;;;;;;;;;5055085;28;20564;-83
2024/04/06 01:46:42;;;;;;;0.20;0.10;;;;;;;;;;5064250;28;20448;-82
2024/04/06 01:49:08;;;;;;;0.20;0.10;;;;;;;;;;5056440;28;20040;-82
2024/04/06 01:51:34;;;;;;;0.30;0.20;;;;;;;;;;5061170;28;20056;-82
2024/04/06 01:54:00;;;;;;;0.20;0.10;;;;;;;;;;5068347;28;20044;-82
2024/04/06 01:56:32;;;;;;;0.20;0.10;;;;;;;;;;5052352;28;20051;-82
2024/04/06 01:58:58;;;;;;;0.47;0.43;;;;;;;;;;5055664;28;20378;-81
2024/04/06 02:01:24;;;;;;;0.85;0.30;;;;;;;;;;5047620;28;20451;-81
2024/04/06 02:03:50;;;;;;;0.20;0.08;;;;;;;;;;5044745;28;20087;-81
2024/04/06 02:06:17;;;;;;;0.20;0.10;;;;;;;;;;5052723;28;20059;-82
2024/04/06 02:08:43;;;;;;;0.20;0.10;;;;;;;;;;5076154;28;20467;-82
2024/04/06 02:11:09;;;;;;;0.20;0.15;;;;;;;;;;5063969;28;20040;-82
2024/04/06 02:13:35;;;;;;;0.20;0.10;;;;;;;;;;5059609;28;20091;-82
2024/04/06 02:16:01;;;;;;;0.20;0.00;;;;;;;;;;5073262;28;20041;-82
2024/04/06 02:18:27;;;;;;;0.20;0.10;;;;;;;;;;5060759;28;20032;-82
2024/04/06 02:20:53;;;;;;;0.20;0.10;;;;;;;;;;5071021;28;20049;-83
2024/04/06 02:23:19;;;;;;;0.20;0.10;;;;;;;;;;5068217;28;20055;-82
2024/04/06 02:25:46;;;;;;;0.20;0.03;;;;;;;;;;5064115;28;20028;-82
2024/04/06 02:28:12;;;;;;;0.20;0.10;;;;;;;;;;5071803;28;20069;-82
2024/04/06 02:30:38;;;;;;;0.20;0.00;;;;;;;;;;5051269;28;20045;-82
2024/04/06 02:33:07;;;;;;;0.20;0.20;;;;;;;;;;5056351;28;20539;-82
2024/04/06 02:35:33;;;;;;;0.20;0.10;;;;;;;;;;5070014;28;20048;-81
2024/04/06 02:37:59;;;;;;;0.20;0.08;;;;;;;;;;5063772;28;20161;-83
2024/04/06 02:40:25;;;;;;;0.20;0.10;;;;;;;;;;5079074;28;20049;-83
2024/04/06 02:42:51;;;;;;;0.52;0.20;;;;;;;;;;5081034;28;20048;-82
2024/04/06 02:45:17;;;;;;;0.30;0.20;;;;;;;;;;5061885;28;20055;-82
2024/04/06 02:47:44;;;;;;;0.20;0.00;;;;;;;;;;5060901;28;20049;-81
2024/04/06 02:50:10;;;;;;;0.20;0.00;;;;;;;;;;5084533;28;20032;-80
2024/04/06 02:52:36;;;;;;;0.20;0.00;;;;;;;;;;5083355;28;20044;-80
2024/04/06 02:55:04;;;;;;;0.20;0.00;;;;;;;;;;5086145;28;20035;-80
2024/04/06 02:57:30;;;;;;;0.20;0.10;;;;;;;;;;5072442;28;20107;-80
2024/04/06 02:59:56;;;;;;;0.20;0.10;;;;;;;;;;5062745;28;20036;-81
2024/04/06 03:02:24;;;;;;;0.20;0.10;;;;;;;;;;5077977;28;20043;-81
2024/04/06 03:04:50;;;;;;;0.20;0.15;;;;;;;;;;5078802;28;20491;-81
2024/04/06 03:07:17;;;;;;;0.20;0.10;;;;;;;;;;5079705;28;20060;-81
2024/04/06 03:09:43;;;;;;;0.20;0.08;;;;;;;;;;5084292;28;20043;-81
2024/04/06 03:12:09;;;;;;;0.52;0.32;;;;;;;;;;5082316;28;20094;-81
2024/04/06 03:14:35;;;;;;;0.20;0.10;;;;;;;;;;5077254;28;20070;-82
2024/04/06 03:17:02;;;;;;;0.20;0.10;;;;;;;;;;5056561;28;20032;-81
2024/04/06 03:19:28;;;;;;;0.20;0.10;;;;;;;;;;5066638;28;20086;-81
2024/04/06 03:21:55;;;;;;;0.20;0.10;;;;;;;;;;5053192;28;20075;-82
2024/04/06 03:24:20;;;;;;;0.20;0.20;;;;;;;;;;5046454;28;20445;-82
2024/04/06 03:26:46;;;;;;;0.20;0.03;;;;;;;;;;5067037;28;20039;-82
2024/04/06 03:29:13;;;;;;;0.40;0.30;;;;;;;;;;5057963;28;20064;-82
2024/04/06 03:31:39;;;;;;;0.20;0.00;;;;;;;;;;5075243;28;20044;-82
2024/04/06 03:34:05;;;;;;;0.20;0.10;;;;;;;;;;5066564;28;20051;-83
2024/04/06 03:36:32;;;;;;;0.30;0.22;;;;;;;;;;5059344;28;20040;-82
2024/04/06 03:38:58;;;;;;;0.20;0.00;;;;;;;;;;5072990;28;20039;-81
2024/04/06 03:41:25;;;;;;;0.82;0.47;;;;;;;;;;5052415;28;20049;-82
2024/04/06 03:43:51;;;;;;;0.20;0.10;;;;;;;;;;5069342;28;20048;-82
2024/04/06 03:46:17;;;;;;;0.20;0.10;;;;;;;;;;5064544;28;20032;-82
2024/04/06 03:48:43;;;;;;;0.20;0.10;;;;;;;;;;5063359;28;20059;-82
2024/04/06 03:51:09;;;;;;;0.20;0.10;;;;;;;;;;5071839;28;20045;-81
2024/04/06 03:53:38;;;;;;;0.20;0.10;;;;;;;;;;5056137;28;20662;-82
2024/04/06 03:56:05;;;;;;;0.20;0.10;;;;;;;;;;5060571;28;20033;-81
2024/04/06 03:58:31;;;;;;;0.20;0.00;;;;;;;;;;5079388;28;20056;-81
2024/04/06 04:00:57;;;;;;;0.20;0.10;;;;;;;;;;5076615;28;20311;-82
2024/04/06 04:03:23;;;;;;;0.20;0.08;;;;;;;;;;5058854;28;20043;-81
2024/04/06 04:05:49;;;;;;;0.20;0.10;;;;;;;;;;5061638;28;20108;-80
2024/04/06 04:08:15;;;;;;;0.20;0.20;;;;;;;;;;5071957;28;20040;-82
2024/04/06 04:10:41;;;;;;;0.20;0.00;;;;;;;;;;5062059;28;20040;-82
2024/04/06 04:13:11;;;;;;;0.20;0.10;;;;;;;;;;5056332;28;20042;-82
2024/04/06 04:15:41;;;;;;;0.20;0.10;;;;;;;;;;5056384;28;20047;-81
2024/04/06 04:18:07;;;;;;;0.28;0.13;;;;;;;;;;5054886;28;20453;-81
2024/04/06 04:20:33;;;;;;;0.20;0.10;;;;;;;;;;5067117;28;20041;-81
2024/04/06 04:23:02;;;;;;;0.20;0.10;;;;;;;;;;5061194;28;20049;-81
2024/04/06 04:25:31;;;;;;;0.47;0.22;;;;;;;;;;5045540;28;20071;-82
2024/04/06 04:27:59;;;;;;;0.35;0.20;;;;;;;;;;5055234;28;20040;-82
2024/04/06 04:30:25;;;;;;;1.23;0.50;;;;;;;;;;5069630;28;20098;-82
2024/04/06 04:32:51;;;;;;;0.20;0.00;;;;;;;;;;5066529;28;20040;-81
2024/04/06 04:35:17;;;;;;;0.20;0.10;;;;;;;;;;5056373;28;20043;-82
2024/04/06 04:37:43;;;;;;;0.20;0.10;;;;;;;;;;5059602;28;20640;-83
2024/04/06 04:40:10;;;;;;;0.20;0.00;;;;;;;;;;5050841;28;20035;-82
2024/04/06 04:42:36;;;;;;;0.20;0.13;;;;;;;;;;5066982;28;20040;-81
2024/04/06 04:45:09;;;;;;;0.20;0.10;;;;;;;;;;5078969;28;20111;-82
2024/04/06 04:47:36;;;;;;;0.20;0.03;;;;;;;;;;5070961;28;20069;-81
2024/04/06 04:50:05;;;;;;;0.20;0.10;;;;;;;;;;5068731;28;20044;-82
2024/04/06 04:52:31;;;;;;;0.60;0.47;;;;;;;;;;5077917;28;20036;-81
2024/04/06 04:54:57;;;;;;;0.20;0.10;;;;;;;;;;5073510;28;20040;-82
2024/04/06 04:57:23;;;;;;;0.25;0.05;;;;;;;;;;5067099;28;20049;-82
2024/04/06 04:59:50;;;;;;;0.20;0.10;;;;;;;;;;5058751;28;20039;-82
2024/04/06 05:02:16;;;;;;;0.20;0.00;;;;;;;;;;5050882;28;20044;-83
2024/04/06 05:04:42;;;;;;;0.20;0.10;;;;;;;;;;5067555;28;20040;-82
2024/04/06 05:07:08;;;;;;;0.20;0.00;;;;;;;;;;5047486;28;20036;-82
2024/04/06 05:09:35;;;;;;;0.20;0.05;;;;;;;;;;5055116;28;20036;-82
2024/04/06 05:12:01;;;;;;;0.20;0.00;;;;;;;;;;5057209;28;20049;-81
2024/04/06 05:14:30;;;;;;;0.20;0.10;;;;;;;;;;5051323;28;20457;-82
2024/04/06 05:16:56;;;;;;;0.20;0.00;;;;;;;;;;5079375;28;20133;-81
2024/04/06 05:19:22;;;;;;;0.20;0.10;;;;;;;;;;5073479;28;20037;-81
2024/04/06 05:21:48;;;;;;;0.20;0.08;;;;;;;;;;5058565;28;20372;-81
2024/04/06 05:24:14;;;;;;;0.20;0.00;;;;;;;;;;5057102;28;20040;-82
2024/04/06 05:26:41;;;;;;;0.20;0.10;;;;;;;;;;5059708;28;20040;-81
2024/04/06 05:29:08;;;;;;;0.20;0.03;;;;;;;;;;5059173;28;20032;-82
2024/04/06 05:31:34;;;;;;;0.20;0.10;;;;;;;;;;5060509;28;20625;-81
2024/04/06 05:34:00;;;;;;;0.20;0.03;;;;;;;;;;5065358;28;20420;-82
2024/04/06 05:36:26;;;;;;;0.20;0.10;;;;;;;;;;5066449;28;20040;-80
2024/04/06 05:38:52;;;;;;;0.20;0.03;;;;;;;;;;5049688;28;20032;-82
2024/04/06 05:41:18;;;;;;;0.20;0.10;;;;;;;;;;5048923;28;20090;-82
2024/04/06 05:43:44;;;;;;;0.20;0.10;;;;;;;;;;5047706;28;20064;-82
2024/04/06 05:46:10;;;;;;;0.20;0.10;;;;;;;;;;5044955;28;20075;-82
2024/04/06 05:48:38;;;;;;;0.20;0.03;;;;;;;;;;5061600;28;20036;-81
2024/04/06 05:51:04;;;;;;;0.20;0.10;;;;;;;;;;5045930;28;20052;-82
2024/04/06 05:53:30;;;;;;;0.40;0.20;;;;;;;;;;5068482;28;20044;-82
2024/04/06 05:55:56;;;;;;;0.20;0.10;;;;;;;;;;5052510;28;20036;-81
2024/04/06 05:58:22;;;;;;;0.50;0.20;;;;;;;;;;5061963;28;20066;-86
2024/04/06 06:00:49;;;;;;;0.20;0.10;;;;;;;;;;5056432;28;20044;-82
2024/04/06 06:03:15;;;;;;;0.20;0.00;;;;;;;;;;5065929;28;20385;-82
2024/04/06 06:05:41;;;;;;;0.65;0.20;;;;;;;;;;5051546;28;20048;-81
2024/04/06 06:08:07;;;;;;;0.20;0.00;;;;;;;;;;5045543;28;20412;-80
2024/04/06 06:10:34;;;;;;;0.20;0.10;;;;;;;;;;5060844;28;20051;-83
2024/04/06 06:13:00;;;;;;;0.30;0.10;;;;;;;;;;5064567;28;20741;-82
2024/04/06 06:15:27;;;;;;;0.30;0.25;;;;;;;;;;5057351;28;20036;-81
2024/04/06 06:17:53;;;;;;;0.20;0.10;;;;;;;;;;5083244;28;20040;-83
2024/04/06 06:20:19;;;;;;;0.20;0.00;;;;;;;;;;5081851;28;20037;-82
2024/04/06 06:22:45;;;;;;;0.20;0.10;;;;;;;;;;5064199;28;20039;-81
2024/04/06 06:25:11;;;;;;;0.20;0.10;;;;;;;;;;5080876;28;20061;-83
2024/04/06 06:27:38;;;;;;;0.20;0.00;;;;;;;;;;5064200;28;20024;-82
2024/04/06 06:30:06;;;;;;;0.20;0.10;;;;;;;;;;5056389;28;20402;-83
2024/04/06 06:32:32;;;;;;;0.20;0.10;;;;;;;;;;5065507;28;20029;-83
2024/04/06 06:34:58;;;;;;;0.20;0.08;;;;;;;;;;5047609;28;20123;-84
2024/04/06 06:37:24;;;;;;;0.20;0.00;;;;;;;;;;5047354;28;20370;-83
2024/04/06 06:39:50;;;;;;;0.20;0.10;;;;;;;;;;5066168;28;20630;-81
2024/04/06 06:42:16;;;;;;;0.20;0.10;;;;;;;;;;5061414;22;20033;-79
2024/04/06 06:44:42;;;;;;;0.20;0.10;;;;;;;;;;5033074;28;20120;-81
2024/04/06 06:47:08;;;;;;;0.20;0.10;;;;;;;;;;5050913;28;20033;-82
2024/04/06 06:49:34;;;;;;;0.20;0.10;;;;;;;;;;5034087;28;20315;-80
2024/04/06 06:52:00;;;;;;;0.20;0.00;;;;;;;;;;5052563;28;20033;-80
2024/04/06 06:54:27;;;;;;;0.20;0.00;;;;;;;;;;5042645;28;20130;-80
2024/04/06 06:56:53;;;;;;;0.20;0.10;;;;;;;;;;5045645;28;20040;-80
2024/04/06 06:59:19;;;;;;;0.20;0.10;;;;;;;;;;5033619;28;20044;-79
2024/04/06 07:01:45;;;;;;;0.20;0.00;;;;;;;;;;5030950;28;20060;-81
2024/04/06 07:04:12;;;;;;;0.20;0.00;;;;;;;;;;5032046;28;20057;-79
2024/04/06 07:06:38;;;;;;;0.20;0.10;;;;;;;;;;5050703;28;20401;-79
2024/04/06 07:09:05;;;;;;;0.20;0.10;;;;;;;;;;5033128;28;20412;-81
2024/04/06 07:11:31;;;;;;;0.20;0.00;;;;;;;;;;5032078;28;20497;-80
2024/04/06 07:13:57;;;;;;;0.20;0.10;;;;;;;;;;5049876;28;20120;-82
2024/04/06 07:16:26;;;;;;;0.20;0.10;;;;;;;;;;5051057;28;20045;-81
2024/04/06 07:18:52;;;;;;;0.20;0.00;;;;;;;;;;5036366;28;20068;-82
2024/04/06 07:21:19;;;;;;;0.30;0.10;;;;;;;;;;5055494;28;20559;-82
2024/04/06 07:23:45;;;;;;;0.20;0.10;;;;;;;;;;5054482;28;20604;-84
2024/04/06 07:26:11;;;;;;;0.22;0.22;;;;;;;;;;5034383;28;20037;-82
2024/04/06 07:28:37;;;;;;;0.20;0.10;;;;;;;;;;5039040;28;20064;-83
2024/04/06 07:31:07;;;;;;;0.30;0.28;;;;;;;;;;5054840;28;20033;-79
2024/04/06 07:33:33;;;;;;;0.30;0.10;;;;;;;;;;5051135;28;20051;-81
2024/04/06 07:35:59;;;;;;;0.20;0.10;;;;;;;;;;5030340;28;20444;-82
2024/04/06 07:38:26;;;;;;;0.20;0.10;;;;;;;;;;5040294;28;20032;-81
2024/04/06 07:40:58;;;;;;;0.20;0.00;;;;;;;;;;5049121;28;20051;-82
2024/04/06 07:43:24;;;;;;;0.20;0.10;;;;;;;;;;5061941;28;20052;-82
2024/04/06 07:45:50;;;;;;;0.30;0.17;;;;;;;;;;5046610;28;20037;-82
2024/04/06 07:48:16;;;;;;;0.57;0.20;;;;;;;;;;5037651;28;20099;-82
2024/04/06 07:50:42;;;;;;;0.20;0.10;;;;;;;;;;5050518;28;20039;-82
2024/04/06 07:53:08;;;;;;;5.35;0.75;;;;;;;;;;5052635;28;20041;-83
2024/04/06 07:55:34;;;;;;;0.20;0.00;;;;;;;;;;5052084;28;20033;-81
2024/04/06 07:58:00;;;;;;;0.20;0.10;;;;;;;;;;5034064;28;20076;-82
2024/04/06 08:00:26;;;;;;;0.20;0.10;;;;;;;;;;5036896;28;20064;-82
2024/04/06 08:02:52;;;;;;;0.20;0.00;;;;;;;;;;5036331;28;20060;-82
2024/04/06 08:05:18;;;;;;;0.20;0.10;;;;;;;;;;5037280;28;20512;-82
2024/04/06 08:07:45;;;;;;;0.20;0.10;;;;;;;;;;5044729;28;20109;-82
2024/04/06 08:10:15;;;;;;;0.20;0.10;;;;;;;;;;5037475;28;20433;-83
2024/04/06 08:12:42;;;;;;;0.20;0.10;;;;;;;;;;5046424;28;20076;-81
2024/04/06 08:15:08;;;;;;;0.20;0.10;;;;;;;;;;5043868;28;20098;-81
2024/04/06 08:17:35;;;;;;;0.20;0.08;;;;;;;;;;5035455;28;20083;-83
2024/04/06 08:20:02;;;;;;;0.20;0.10;;;;;;;;;;5035970;28;20037;-83
2024/04/06 08:22:28;;;;;;;0.20;0.00;;;;;;;;;;5029369;28;20044;-81
2024/04/06 08:24:54;;;;;;;0.20;0.10;;;;;;;;;;5049531;28;21429;-81
2024/04/06 08:27:21;;;;;;;0.20;0.10;;;;;;;;;;5030636;28;20119;-81
2024/04/06 08:29:47;;;;;;;0.20;0.00;;;;;;;;;;5035448;28;20090;-82
2024/04/06 08:32:13;;;;;;;0.20;0.00;;;;;;;;;;5036738;28;20120;-81
2024/04/06 08:34:39;;;;;;;0.20;0.10;;;;;;;;;;5043224;28;20102;-80
2024/04/06 08:37:05;;;;;;;0.20;0.00;;;;;;;;;;5029451;28;20500;-81
2024/04/06 08:39:31;;;;;;;0.20;0.10;;;;;;;;;;5044445;28;20037;-81
2024/04/06 08:41:57;;;;;;;0.20;0.10;;;;;;;;;;5047618;28;20033;-82
2024/04/06 08:44:33;;;;;;;0.20;0.10;;;;;;;;;;5045051;28;20040;-81
2024/04/06 08:47:00;;;;;;;0.20;0.10;;;;;;;;;;5041667;28;20044;-83
2024/04/06 08:49:26;;;;;;;0.20;0.00;;;;;;;;;;5033518;28;20381;-80
2024/04/06 08:51:53;;;;;;;0.20;0.10;;;;;;;;;;5047591;28;20413;-81
2024/04/06 08:54:19;;;;;;;0.20;0.00;;;;;;;;;;5046091;28;20071;-80
2024/04/06 08:56:45;;;;;;;0.20;0.00;;;;;;;;;;5031717;28;20044;-81
2024/04/06 08:59:11;;;;;;;0.20;0.05;;;;;;;;;;5033362;28;20124;-82
2024/04/06 09:01:37;;;;;;;0.20;0.10;;;;;;;;;;5028854;28;20064;-84
2024/04/06 09:04:03;;;;;;;0.20;0.10;;;;;;;;;;5039776;28;20057;-81
2024/04/06 09:06:29;;;;;;;0.63;0.25;;;;;;;;;;5045286;28;20076;-83
2024/04/06 09:08:55;;;;;;;0.20;0.10;;;;;;;;;;5031216;28;20041;-80
2024/04/06 09:11:21;;;;;;;0.20;0.00;;;;;;;;;;5030915;28;20041;-82
2024/04/06 09:13:48;;;;;;;0.20;0.00;;;;;;;;;;5029357;28;20041;-82
2024/04/06 09:16:16;;;;;;;0.40;0.10;;;;;;;;;;5045580;28;20060;-83
2024/04/06 09:18:42;;;;;;;0.20;0.00;;;;;;;;;;5045922;28;20122;-81
2024/04/06 09:21:08;;;;;;;0.30;0.20;;;;;;;;;;5042210;28;20506;-81
2024/04/06 09:23:34;;;;;;;0.25;0.15;;;;;;;;;;5031779;28;20041;-82
2024/04/06 09:26:01;;;;;;;0.20;0.10;;;;;;;;;;5023249;28;20122;-79
2024/04/06 09:28:27;;;;;;;0.20;0.05;;;;;;;;;;5048033;28;20041;-81
2024/04/06 09:30:56;;;;;;;0.20;0.10;;;;;;;;;;5049053;28;20033;-82
2024/04/06 09:33:26;;;;;;;0.20;0.00;;;;;;;;;;5039974;28;20502;-82
2024/04/06 09:35:52;;;;;;;0.20;0.00;;;;;;;;;;5033386;28;20608;-81
2024/04/06 09:38:18;;;;;;;0.20;0.00;;;;;;;;;;5052643;28;20041;-80
2024/04/06 09:40:46;;;;;;;0.20;0.10;;;;;;;;;;5050917;28;20038;-81
2024/04/06 09:43:12;;;;;;;0.20;0.10;;;;;;;;;;5062007;28;20044;-80
2024/04/06 09:45:38;;;;;;;0.30;0.28;;;;;;;;;;5047829;28;20112;-83
2024/04/06 09:48:06;;;;;;;0.20;0.10;;;;;;;;;;5048401;28;20132;-79
2024/04/06 09:50:35;;;;;;;0.20;0.10;;;;;;;;;;5040934;28;20052;-81
2024/04/06 09:53:02;;;;;;;0.20;0.00;;;;;;;;;;5039307;28;20037;-75
2024/04/06 09:55:30;;;;;;;0.20;0.00;;;;;;;;;;5043948;28;20169;-78
2024/04/06 09:57:56;;;;;;;0.20;0.00;;;;;;;;;;5043000;28;20520;-77
2024/04/06 10:00:23;;;;;;;0.60;0.10;;;;;;;;;;5046767;28;20473;-78
2024/04/06 10:02:53;;;;;;;0.20;0.10;;;;;;;;;;5031040;28;20496;-75
2024/04/06 10:05:19;;;;;;;0.30;0.20;;;;;;;;;;5028390;28;20037;-79
2024/04/06 10:07:55;;;;;;;0.20;0.00;;;;;;;;;;5030819;28;20041;-80
2024/04/06 10:10:31;;;;;;;0.20;0.10;;;;;;;;;;5060525;28;20118;-77
2024/04/06 10:12:57;;;;;;;0.20;0.10;;;;;;;;;;5031106;28;21005;-78
2024/04/06 10:15:23;;;;;;;0.20;0.00;;;;;;;;;;5030265;28;22408;-76
2024/04/06 10:17:50;;;;;;;0.20;0.05;;;;;;;;;;5027189;28;20037;-77
2024/04/06 10:20:22;;;;;;;0.20;0.10;;;;;;;;;;5042802;28;20072;-78
2024/04/06 10:22:52;;;;;;;0.20;0.00;;;;;;;;;;5039630;28;20037;-77
2024/04/06 10:25:26;;;;;;;0.20;0.10;;;;;;;;;;5030853;28;20036;-76
2024/04/06 10:27:59;;;;;;;0.30;0.10;;;;;;;;;;5027204;28;20045;-77
2024/04/06 10:30:25;;;;;;;0.22;0.20;;;;;;;;;;5026620;28;20049;-75
2024/04/06 10:32:53;;;;;;;0.43;0.10;;;;;;;;;;5043220;28;20036;-76
2024/04/06 10:35:19;;;;;;;0.20;0.10;;;;;;;;;;5043193;28;22345;-76
2024/04/06 10:37:46;;;;;;;0.40;0.20;;;;;;;;;;5042603;28;20075;-74
2024/04/06 10:40:13;;;;;;;0.20;0.10;;;;;;;;;;5026578;28;20215;-79
2024/04/06 10:42:39;;;;;;;0.20;0.10;;;;;;;;;;5043243;28;20412;-78
2024/04/06 10:45:08;;;;;;;0.20;0.10;;;;;;;;;;5027134;28;20029;-77
2024/04/06 10:47:36;;;;;;;0.20;0.10;;;;;;;;;;5038823;28;20044;-77
2024/04/06 10:50:02;;;;;;;0.20;0.05;;;;;;;;;;5023095;28;20033;-76
2024/04/06 10:52:29;;;;;;;0.20;0.10;;;;;;;;;;5024881;28;20037;-77
2024/04/06 10:54:57;;;;;;;0.20;0.00;;;;;;;;;;5045268;28;20047;-75
2024/04/06 10:57:24;;;;;;;0.28;0.22;;;;;;;;;;5026130;28;20405;-77
2024/04/06 10:59:51;;;;;;;0.47;0.10;;;;;;;;;;5040957;28;20060;-78
2024/04/06 11:02:17;;;;;;;0.20;0.00;;;;;;;;;;5028940;28;20072;-78
2024/04/06 11:04:43;;;;;;;0.20;0.10;;;;;;;;;;5030528;28;20102;-77
2024/04/06 11:07:11;;;;;;;1.33;0.47;;;;;;;;;;5039872;28;20055;-77
2024/04/06 11:09:37;;;;;;;0.20;0.15;;;;;;;;;;5029498;28;20091;-76
2024/04/06 11:12:03;;;;;;;0.20;0.10;;;;;;;;;;5041089;28;20045;-74
2024/04/06 11:14:30;;;;;;;0.20;0.10;;;;;;;;;;5042917;28;20095;-76
2024/04/06 11:16:56;;;;;;;0.20;0.00;;;;;;;;;;5041020;28;20150;-79
2024/04/06 11:19:24;;;;;;;0.20;0.05;;;;;;;;;;5040933;28;20136;-80
2024/04/06 11:21:50;;;;;;;0.20;0.10;;;;;;;;;;5045438;28;20040;-77
2024/04/06 11:24:17;;;;;;;0.22;0.20;;;;;;;;;;5042688;28;20044;-75
2024/04/06 11:26:43;;;;;;;0.20;0.10;;;;;;;;;;5055592;28;20090;-78
2024/04/06 11:29:12;;;;;;;0.20;0.05;;;;;;;;;;5039791;28;20076;-76
2024/04/06 11:31:38;;;;;;;0.20;0.00;;;;;;;;;;5042781;28;20045;-78
2024/04/06 11:34:04;;;;;;;0.20;0.10;;;;;;;;;;5044613;28;20698;-78
2024/04/06 11:36:30;;;;;;;0.28;0.20;;;;;;;;;;5042159;28;20049;-79
2024/04/06 11:38:56;;;;;;;0.22;0.20;;;;;;;;;;5043310;28;20127;-79
2024/04/06 11:41:22;;;;;;;0.40;0.30;;;;;;;;;;5043610;28;20257;-77
2024/04/06 11:43:48;;;;;;;0.43;0.25;;;;;;;;;;5041103;28;20044;-77
2024/04/06 11:46:14;;;;;;;0.20;0.10;;;;;;;;;;5025518;28;20082;-78
2024/04/06 11:48:40;;;;;;;0.20;0.10;;;;;;;;;;5040798;28;20049;-79
2024/04/06 11:51:06;;;;;;;0.20;0.10;;;;;;;;;;5037925;28;20699;-76
2024/04/06 11:53:34;;;;;;;0.20;0.00;;;;;;;;;;5024176;28;20037;-78
2024/04/06 11:56:01;;;;;;;0.20;0.10;;;;;;;;;;5056046;28;20064;-79
2024/04/06 11:58:27;;;;;;;0.20;0.10;;;;;;;;;;5044080;28;20041;-82
2024/04/06 12:00:53;;;;;;;0.20;0.10;;;;;;;;;;5026691;28;20060;-78
2024/04/06 12:03:20;;;;;;;0.38;0.15;;;;;;;;;;5040741;28;20095;-78
2024/04/06 12:05:46;;;;;;;0.20;0.10;;;;;;;;;;5037394;28;20033;-79
2024/04/06 12:08:12;;;;;;;0.80;0.70;;;;;;;;;;5039428;28;20033;-78
2024/04/06 12:10:38;;;;;;;0.20;0.10;;;;;;;;;;5025887;28;20067;-78
2024/04/06 12:13:04;;;;;;;0.20;0.00;;;;;;;;;;5038203;28;20071;-77
2024/04/06 12:15:30;;;;;;;0.20;0.10;;;;;;;;;;5037605;28;20037;-78
2024/04/06 12:17:56;;;;;;;0.20;0.10;;;;;;;;;;5044936;28;20045;-81
2024/04/06 12:20:22;;;;;;;0.20;0.10;;;;;;;;;;5028842;28;20033;-78
2024/04/06 12:22:48;;;;;;;1.17;0.40;;;;;;;;;;5036614;28;20529;-78
2024/04/06 12:25:14;;;;;;;0.20;0.10;;;;;;;;;;5041331;28;20037;-77
2024/04/06 12:27:40;;;;;;;0.20;0.10;;;;;;;;;;5045093;28;20033;-79
2024/04/06 12:30:12;;;;;;;0.20;0.10;;;;;;;;;;5039285;28;20509;-79
2024/04/06 12:32:38;;;;;;;0.20;0.10;;;;;;;;;;5030497;28;20040;-78
2024/04/06 12:35:04;;;;;;;0.20;0.05;;;;;;;;;;5030431;28;20067;-80
2024/04/06 12:37:30;;;;;;;0.20;0.00;;;;;;;;;;5045016;28;20156;-78
2024/04/06 12:39:56;;;;;;;0.32;0.10;;;;;;;;;;5044162;28;20064;-78
2024/04/06 12:44:51;;;;;;;0.30;0.10;;;;;;;;;;5039013;28;20045;-78
2024/04/06 12:47:17;;;;;;;0.20;0.10;;;;;;;;;;5035494;28;20045;-78
2024/04/06 12:49:43;;;;;;;0.20;0.10;;;;;;;;;;5045258;28;20030;-83
2024/04/06 12:52:09;;;;;;;0.20;0.10;;;;;;;;;;5037135;28;20494;-85
2024/04/06 12:54:35;;;;;;;0.20;0.20;;;;;;;;;;5032980;28;20038;-82
2024/04/06 12:59:45;;;;;;;0.63;0.63;;;;;;;;;;5040179;28;20513;-85
2024/04/06 13:02:11;;;;;;;0.20;0.10;;;;;;;;;;5030870;28;20048;-81
2024/04/06 13:04:37;;;;;;;0.20;0.10;;;;;;;;;;5034576;28;20037;-83
2024/04/06 13:07:03;;;;;;;0.20;0.10;;;;;;;;;;5044084;28;20048;-83
2024/04/06 13:09:29;;;;;;;0.28;0.10;;;;;;;;;;5046913;28;20209;-81
2024/04/06 13:11:57;;;;;;;0.20;0.10;;;;;;;;;;5057881;28;20067;-85
2024/04/06 13:14:23;;;;;;;0.20;0.00;;;;;;;;;;5067323;28;20136;-84
2024/04/06 13:16:51;;;;;;;0.20;0.10;;;;;;;;;;5033807;28;20175;-83
2024/04/06 13:19:18;;;;;;;0.30;0.20;;;;;;;;;;5056124;28;20074;-84
2024/04/06 13:21:47;;;;;;;0.20;0.05;;;;;;;;;;5054340;28;20068;-84
2024/04/06 13:24:13;;;;;;;0.20;0.03;;;;;;;;;;5039082;28;20041;-82
2024/04/06 13:26:45;;;;;;;0.20;0.10;;;;;;;;;;5032163;28;20058;-85
2024/04/06 13:29:12;;;;;;;0.20;0.10;;;;;;;;;;5041245;28;20037;-84
2024/04/06 13:31:38;;;;;;;0.20;0.10;;;;;;;;;;5053413;28;20424;-85
2024/04/06 13:34:06;;;;;;;1.00;0.10;;;;;;;;;;5034312;28;20045;-82
2024/04/06 13:36:32;;;;;;;0.20;0.10;;;;;;;;;;5048704;28;20041;-85
2024/04/06 13:38:58;;;;;;;0.20;0.10;;;;;;;;;;5033135;28;20091;-80
2024/04/06 13:41:24;;;;;;;0.45;0.40;;;;;;;;;;5030299;28;20497;-83
2024/04/06 13:43:50;;;;;;;0.20;0.10;;;;;;;;;;5049753;28;20048;-82
2024/04/06 13:46:16;;;;;;;0.20;0.20;;;;;;;;;;5032474;28;20494;-82
2024/04/06 13:48:42;;;;;;;0.20;0.10;;;;;;;;;;5051144;28;20041;-84
2024/04/06 13:51:08;;;;;;;0.20;0.03;;;;;;;;;;5048282;28;20455;-81
2024/04/06 13:53:34;;;;;;;0.20;0.05;;;;;;;;;;5042609;28;21524;-82
2024/04/06 13:56:00;;;;;;;0.20;0.10;;;;;;;;;;5042127;28;20065;-81
2024/04/06 13:58:26;;;;;;;0.20;0.00;;;;;;;;;;5032005;28;20044;-82
2024/04/06 14:00:52;;;;;;;0.20;0.10;;;;;;;;;;5053063;28;20040;-81
2024/04/06 14:03:18;;;;;;;0.20;0.10;;;;;;;;;;5032462;28;20054;-82
2024/04/06 14:05:44;;;;;;;0.20;0.10;;;;;;;;;;5030053;28;20517;-79
2024/04/06 14:08:11;;;;;;;0.20;0.15;;;;;;;;;;5025454;28;20052;-80
2024/04/06 14:10:38;;;;;;;0.20;0.13;;;;;;;;;;5027905;28;20037;-81
2024/04/06 14:13:04;;;;;;;0.20;0.10;;;;;;;;;;5027539;28;20033;-79
2024/04/06 14:15:30;;;;;;;0.20;0.10;;;;;;;;;;5029556;28;20045;-80
2024/04/06 14:17:56;;;;;;;0.20;0.10;;;;;;;;;;5027868;28;20055;-81
2024/04/06 14:20:22;;;;;;;0.40;0.30;;;;;;;;;;5043937;28;20064;-82
2024/04/06 14:22:48;;;;;;;0.20;0.00;;;;;;;;;;5043178;28;20038;-82
2024/04/06 14:25:14;;;;;;;0.45;0.10;;;;;;;;;;5028418;28;20871;-84
2024/04/06 14:27:40;;;;;;;0.20;0.00;;;;;;;;;;5047116;28;20090;-82
2024/04/06 14:30:28;;;;;;;0.20;0.10;;;;;;;;;;5047162;28;20045;-81
2024/04/06 14:32:55;;;;;;;1.85;0.43;;;;;;;;;;5028876;28;20036;-84
2024/04/06 14:35:21;;;;;;;0.50;0.47;;;;;;;;;;5046693;28;20037;-81
2024/04/06 14:37:47;;;;;;;0.28;0.22;;;;;;;;;;5030533;28;20047;-81
2024/04/06 14:40:13;;;;;;;0.20;0.05;;;;;;;;;;5029423;28;20045;-80
2024/04/06 14:42:39;;;;;;;0.20;0.20;;;;;;;;;;5045492;28;20041;-81
2024/04/06 14:45:05;;;;;;;0.20;0.10;;;;;;;;;;5051074;28;20094;-87